Time;durP1;ratioP1;P1;durP2;ratioP2;P2;SDS_P1;SDS_P2;PMS_P1;PMS_P2;Temp;Humidity;BMP_temperature;BMP_pressure;BME280_temperature;BME280_humidity;BME280_pressure;Samples;Min_cycle;Max_cycle;Signal;HPM_P1;HPM_P2
2022/07/20 00:00:49;;;;;;;6.30;3.60;;;26.20;71.80;;;;;;7405169;19;20605;-77
2022/07/20 00:03:15;;;;;;;7.10;3.75;;;26.20;73.40;;;;;;7395974;19;20247;-78
2022/07/20 00:05:42;;;;;;;7.05;3.78;;;26.30;72.20;;;;;;7391956;19;20134;-78
2022/07/20 00:08:09;;;;;;;5.97;3.90;;;26.50;72.80;;;;;;7395208;19;20147;-77
2022/07/20 00:11:21;;;;;;;4.93;3.20;;;26.60;71.70;;;;;;7395320;19;20143;-78
2022/07/20 00:13:22;;;;;;;5.65;3.50;;;26.60;72.40;;;;;;7393117;19;20162;-78
2022/07/20 00:15:48;;;;;;;8.00;3.40;;;26.50;72.40;;;;;;7394936;19;20147;-78
2022/07/20 00:18:14;;;;;;;6.55;3.40;;;26.10;73.10;;;;;;7392568;19;20160;-77
2022/07/20 00:20:40;;;;;;;6.88;3.60;;;25.90;74.00;;;;;;7392232;19;20174;-78
2022/07/20 00:23:06;;;;;;;4.97;3.83;;;25.60;74.50;;;;;;7392603;19;20146;-77
2022/07/20 00:25:32;;;;;;;5.28;3.50;;;25.50;75.00;;;;;;7393475;19;20158;-78
2022/07/20 00:27:58;;;;;;;4.50;3.85;;;25.80;75.10;;;;;;7391709;19;20146;-77
2022/07/20 00:30:24;;;;;;;5.97;3.90;;;26.10;74.10;;;;;;7391463;19;20139;-78
2022/07/20 00:32:50;;;;;;;3.75;3.33;;;26.20;74.20;;;;;;7393183;19;20164;-78
2022/07/20 00:35:16;;;;;;;7.22;3.38;;;26.00;73.30;;;;;;7393616;19;20139;-78
2022/07/20 00:37:43;;;;;;;6.35;3.90;;;25.80;74.60;;;;;;7391425;19;20597;-77
2022/07/20 00:40:12;;;;;;;8.25;3.60;;;25.90;74.50;;;;;;7391880;19;20141;-78
2022/07/20 00:42:38;;;;;;;5.38;3.42;;;25.90;74.40;;;;;;7392413;19;20165;-77
2022/07/20 00:45:06;;;;;;;4.15;3.15;;;25.80;74.20;;;;;;7388247;19;20150;-77
2022/07/20 00:47:32;;;;;;;5.05;3.55;;;25.90;74.10;;;;;;7393535;19;20142;-77
2022/07/20 00:49:58;;;;;;;4.80;3.20;;;25.60;74.60;;;;;;7391635;19;20155;-77
2022/07/20 00:52:24;;;;;;;4.15;3.47;;;25.70;75.40;;;;;;7392112;19;20146;-77
2022/07/20 00:54:53;;;;;;;6.10;3.40;;;26.00;74.30;;;;;;7393403;19;20131;-77
2022/07/20 00:57:20;;;;;;;4.05;3.10;;;25.90;74.40;;;;;;7391892;19;20221;-77
2022/07/20 00:59:46;;;;;;;5.10;3.60;;;25.90;74.60;;;;;;7391157;19;20170;-77
2022/07/20 01:02:12;;;;;;;7.15;3.30;;;26.10;73.90;;;;;;7392598;19;20162;-78
2022/07/20 01:04:38;;;;;;;5.20;3.47;;;26.20;73.70;;;;;;7391280;19;20602;-77
2022/07/20 01:07:04;;;;;;;5.65;3.75;;;26.30;73.70;;;;;;7391676;19;20162;-78
2022/07/20 01:09:30;;;;;;;7.28;3.28;;;26.30;73.90;;;;;;7391272;19;20150;-77
2022/07/20 01:11:56;;;;;;;6.72;3.08;;;26.20;74.10;;;;;;7390450;19;20161;-77
2022/07/20 01:14:21;;;;;;;5.15;3.15;;;26.20;74.40;;;;;;7394376;19;20227;-78
2022/07/20 01:16:47;;;;;;;6.00;3.40;;;26.20;73.90;;;;;;7391217;19;20155;-77
2022/07/20 01:19:13;;;;;;;3.33;2.90;;;26.20;74.10;;;;;;7392900;19;20138;-77
2022/07/20 01:21:42;;;;;;;5.38;3.72;;;26.20;74.20;;;;;;7393247;19;20131;-77
2022/07/20 01:24:12;;;;;;;6.03;3.25;;;26.20;74.00;;;;;;7394235;19;20584;-76
2022/07/20 01:26:40;;;;;;;4.68;3.25;;;26.20;74.30;;;;;;7388063;19;20143;-78
2022/07/20 01:29:06;;;;;;;6.95;3.47;;;26.00;74.50;;;;;;7394158;19;20131;-77
2022/07/20 01:31:32;;;;;;;6.28;3.33;;;25.70;75.00;;;;;;7388230;19;20588;-77
2022/07/20 01:33:58;;;;;;;6.57;3.80;;;25.50;75.90;;;;;;7391416;19;20135;-77
2022/07/20 01:36:24;;;;;;;5.70;3.05;;;25.60;75.90;;;;;;7390056;19;20139;-77
2022/07/20 01:38:50;;;;;;;7.38;3.42;;;25.60;75.50;;;;;;7391375;19;20275;-77
2022/07/20 01:41:15;;;;;;;5.57;3.22;;;25.30;75.80;;;;;;7393442;19;20871;-76
2022/07/20 01:43:41;;;;;;;5.05;3.38;;;25.30;76.50;;;;;;7389071;19;20154;-78
2022/07/20 01:46:07;;;;;;;7.28;3.53;;;25.60;76.70;;;;;;7388012;19;20192;-78
2022/07/20 01:48:32;;;;;;;5.20;3.53;;;25.50;76.00;;;;;;7390445;19;20573;-77
2022/07/20 01:50:58;;;;;;;5.07;3.40;;;25.20;76.40;;;;;;7393256;19;20155;-77
2022/07/20 01:53:24;;;;;;;4.85;2.90;;;25.20;77.20;;;;;;7388036;19;20138;-78
2022/07/20 01:55:52;;;;;;;4.50;3.58;;;25.00;77.70;;;;;;7388659;19;20181;-77
2022/07/20 01:58:18;;;;;;;4.93;2.97;;;25.20;77.40;;;;;;7388136;19;20131;-78
2022/07/20 02:00:43;;;;;;;4.43;3.63;;;25.10;76.50;;;;;;7392592;19;20561;-79
2022/07/20 02:03:09;;;;;;;4.32;3.40;;;25.20;77.50;;;;;;7390622;19;20170;-79
2022/07/20 02:05:35;;;;;;;4.15;2.67;;;25.40;76.70;;;;;;7387563;19;20138;-78
2022/07/20 02:08:01;;;;;;;4.22;3.38;;;25.40;77.10;;;;;;7389368;19;20146;-77
2022/07/20 02:10:27;;;;;;;4.05;3.00;;;25.30;77.10;;;;;;7389607;19;20174;-78
2022/07/20 02:12:53;;;;;;;5.55;3.05;;;25.40;77.10;;;;;;7392272;19;20596;-80
2022/07/20 02:18:11;;;;;;;6.68;3.50;;;25.30;77.80;;;;;;7390038;19;20490;-76
2022/07/20 02:20:38;;;;;;;3.92;2.90;;;25.40;77.90;;;;;;7390217;19;20217;-79
2022/07/20 02:23:06;;;;;;;7.00;2.88;;;25.50;77.30;;;;;;7389944;19;20161;-78
2022/07/20 02:25:32;;;;;;;4.30;2.97;;;25.50;77.10;;;;;;7388128;19;20150;-78
2022/07/20 02:27:58;;;;;;;6.43;2.83;;;25.50;77.10;;;;;;7389250;19;20558;-77
2022/07/20 02:30:24;;;;;;;4.03;2.88;;;25.40;77.80;;;;;;7388163;19;20238;-78
2022/07/20 02:32:50;;;;;;;5.45;3.33;;;25.40;77.60;;;;;;7389639;19;20142;-78
2022/07/20 02:35:16;;;;;;;5.43;3.25;;;25.50;77.30;;;;;;7387917;19;20145;-78
2022/07/20 02:37:42;;;;;;;3.10;2.80;;;25.30;77.60;;;;;;7388542;19;20158;-77
2022/07/20 02:40:08;;;;;;;4.72;2.90;;;24.90;78.90;;;;;;7389031;19;20177;-78
2022/07/20 02:42:34;;;;;;;4.13;3.20;;;25.00;79.00;;;;;;7389967;19;20149;-77
2022/07/20 02:45:00;;;;;;;6.97;3.10;;;24.80;79.30;;;;;;7388339;19;20146;-80
2022/07/20 02:47:26;;;;;;;5.10;2.95;;;25.00;79.60;;;;;;7387709;19;20628;-78
2022/07/20 02:49:52;;;;;;;4.82;3.15;;;25.00;79.00;;;;;;7389820;19;20144;-79
2022/07/20 02:52:18;;;;;;;4.15;3.30;;;25.10;78.90;;;;;;7385379;19;20467;-73
2022/07/20 02:54:43;;;;;;;4.20;3.25;;;25.20;78.80;;;;;;7388268;19;20593;-72
2022/07/20 02:57:09;;;;;;;5.22;2.85;;;25.20;79.00;;;;;;7388345;19;20497;-72
2022/07/20 02:59:35;;;;;;;5.43;3.13;;;25.10;79.60;;;;;;7388989;19;20593;-72
2022/07/20 03:02:00;;;;;;;4.15;3.08;;;25.10;79.30;;;;;;7388130;19;20143;-72
2022/07/20 03:04:26;;;;;;;5.15;3.08;;;25.10;79.60;;;;;;7387782;19;20607;-73
2022/07/20 03:06:52;;;;;;;3.97;3.25;;;25.10;79.60;;;;;;7387751;19;20145;-73
2022/07/20 03:09:18;;;;;;;4.07;3.67;;;25.10;79.80;;;;;;7387985;19;20134;-71
2022/07/20 03:11:43;;;;;;;5.70;3.20;;;25.10;79.30;;;;;;7387719;19;20126;-72
2022/07/20 03:14:09;;;;;;;4.32;3.20;;;25.10;79.30;;;;;;7390768;19;20173;-72
2022/07/20 03:16:35;;;;;;;4.68;3.05;;;25.10;79.10;;;;;;7395589;19;20134;-72
2022/07/20 03:19:01;;;;;;;3.33;2.80;;;25.00;79.30;;;;;;7394759;19;20634;-74
2022/07/20 03:21:26;;;;;;;3.83;2.95;;;25.00;79.80;;;;;;7392401;19;20154;-73
2022/07/20 03:23:53;;;;;;;2.67;2.30;;;25.00;80.50;;;;;;7393836;19;20489;-74
2022/07/20 03:26:19;;;;;;;3.40;2.80;;;25.00;79.30;;;;;;7393864;19;20159;-72
2022/07/20 03:28:45;;;;;;;6.13;3.22;;;25.00;79.70;;;;;;7394325;19;20488;-72
2022/07/20 03:31:11;;;;;;;3.92;2.92;;;25.00;80.10;;;;;;7395361;19;20146;-73
2022/07/20 03:33:37;;;;;;;7.50;3.08;;;24.90;79.60;;;;;;7394476;19;20147;-73
2022/07/20 03:36:03;;;;;;;4.93;3.17;;;24.70;79.90;;;;;;7394038;19;20146;-72
2022/07/20 03:38:29;;;;;;;4.85;2.80;;;24.50;80.80;;;;;;7394976;19;20142;-73
2022/07/20 03:40:55;;;;;;;6.18;2.92;;;24.60;80.50;;;;;;7395312;19;20126;-71
2022/07/20 03:43:25;;;;;;;4.55;2.78;;;24.70;80.00;;;;;;7394306;19;20225;-72
2022/07/20 03:45:52;;;;;;;19.90;3.28;;;24.70;80.10;;;;;;7391729;19;20135;-73
2022/07/20 03:48:18;;;;;;;4.70;3.13;;;24.70;80.60;;;;;;7395068;19;20142;-72
2022/07/20 03:50:45;;;;;;;7.40;3.53;;;24.80;80.00;;;;;;7393422;19;20500;-72
2022/07/20 03:53:11;;;;;;;4.55;3.53;;;24.90;80.60;;;;;;7392688;19;20158;-74
2022/07/20 03:55:37;;;;;;;5.75;3.58;;;24.80;81.00;;;;;;7393062;19;20590;-73
2022/07/20 03:58:03;;;;;;;4.95;3.38;;;24.70;82.00;;;;;;7393679;19;20210;-74
2022/07/20 04:00:29;;;;;;;5.60;3.50;;;24.70;82.20;;;;;;7391936;19;20131;-74
2022/07/20 04:02:54;;;;;;;4.38;3.17;;;24.70;81.20;;;;;;7393815;19;20139;-73
2022/07/20 04:05:20;;;;;;;5.55;3.50;;;24.50;81.80;;;;;;7391969;19;20603;-72
2022/07/20 04:07:46;;;;;;;4.32;3.05;;;24.60;82.00;;;;;;7393750;19;20190;-73
2022/07/20 04:10:12;;;;;;;5.10;3.38;;;24.40;83.20;;;;;;7392789;19;20153;-72
2022/07/20 04:12:37;;;;;;;4.38;3.53;;;24.50;82.50;;;;;;7392890;19;20535;-72
2022/07/20 04:15:03;;;;;;;5.13;4.00;;;24.60;82.10;;;;;;7394784;19;20135;-73
2022/07/20 04:17:29;;;;;;;6.40;3.97;;;24.60;83.20;;;;;;7392908;19;20135;-73
2022/07/20 04:19:55;;;;;;;6.65;4.05;;;24.50;83.30;;;;;;7392194;19;20194;-73
2022/07/20 04:22:21;;;;;;;4.60;3.42;;;24.40;83.10;;;;;;7392533;19;20608;-71
2022/07/20 04:24:47;;;;;;;7.07;3.55;;;24.50;83.40;;;;;;7392834;19;20484;-74
2022/07/20 04:27:13;;;;;;;8.30;3.40;;;24.30;83.50;;;;;;7389668;19;20606;-73
2022/07/20 04:29:38;;;;;;;4.28;3.42;;;24.40;83.50;;;;;;7392372;19;20154;-72
2022/07/20 04:32:05;;;;;;;4.93;3.80;;;24.50;84.00;;;;;;7391402;19;20141;-72
2022/07/20 04:34:31;;;;;;;6.07;3.85;;;24.40;83.80;;;;;;7394921;19;20138;-72
2022/07/20 04:36:57;;;;;;;6.75;3.58;;;24.10;84.50;;;;;;7393086;19;20168;-72
2022/07/20 04:39:24;;;;;;;4.60;3.80;;;24.00;85.40;;;;;;7394115;19;20142;-73
2022/07/20 04:41:49;;;;;;;5.32;3.47;;;24.10;85.40;;;;;;7395367;19;20241;-72
2022/07/20 04:44:15;;;;;;;6.35;3.47;;;23.60;85.80;;;;;;7389861;19;20166;-73
2022/07/20 04:46:41;;;;;;;5.65;3.60;;;23.40;87.30;;;;;;7393462;19;20163;-72
2022/07/20 04:49:07;;;;;;;4.47;3.08;;;23.50;87.90;;;;;;7393827;19;20610;-73
2022/07/20 04:51:34;;;;;;;5.13;3.60;;;23.80;87.20;;;;;;7395582;19;20143;-74
2022/07/20 04:54:00;;;;;;;4.97;3.50;;;23.90;86.70;;;;;;7393254;19;20142;-73
2022/07/20 04:56:25;;;;;;;4.28;3.30;;;24.00;86.40;;;;;;7392716;19;20244;-74
2022/07/20 04:58:52;;;;;;;5.00;3.47;;;24.20;85.40;;;;;;7391376;19;20142;-73
2022/07/20 05:01:20;;;;;;;6.07;3.55;;;24.40;85.70;;;;;;7392127;19;20146;-74
2022/07/20 05:03:46;;;;;;;5.97;3.70;;;24.30;85.90;;;;;;7393804;19;20142;-73
2022/07/20 05:06:12;;;;;;;7.80;3.38;;;24.50;85.80;;;;;;7394789;19;20143;-73
2022/07/20 05:08:38;;;;;;;5.72;3.80;;;24.50;85.40;;;;;;7394267;19;20167;-77
2022/07/20 05:11:04;;;;;;;5.15;3.30;;;24.50;85.70;;;;;;7395616;19;20141;-76
2022/07/20 05:13:30;;;;;;;10.05;3.88;;;24.60;85.50;;;;;;7397285;19;20150;-76
2022/07/20 05:15:56;;;;;;;8.98;3.55;;;24.50;85.70;;;;;;7398953;19;20521;-75
2022/07/20 05:18:22;;;;;;;6.22;3.40;;;24.50;85.80;;;;;;7403299;19;20150;-76
2022/07/20 05:20:47;;;;;;;4.88;3.20;;;24.50;85.80;;;;;;7409071;19;20193;-79
2022/07/20 05:23:13;;;;;;;7.05;3.33;;;24.30;86.60;;;;;;7409895;19;20131;-76
2022/07/20 05:25:39;;;;;;;8.02;3.50;;;24.40;86.00;;;;;;7409984;19;20142;-78
2022/07/20 05:28:08;;;;;;;4.22;3.50;;;24.50;86.00;;;;;;7396282;19;20122;-75
2022/07/20 05:30:34;;;;;;;7.30;3.85;;;24.60;85.90;;;;;;7392853;19;20178;-76
2022/07/20 05:32:59;;;;;;;5.45;3.08;;;24.60;85.70;;;;;;7390332;19;20135;-78
2022/07/20 05:35:26;;;;;;;6.47;3.30;;;24.60;85.70;;;;;;7393545;19;20158;-77
2022/07/20 05:37:52;;;;;;;5.03;3.08;;;24.60;85.90;;;;;;7390661;19;20226;-76
2022/07/20 05:40:18;;;;;;;5.97;3.05;;;24.50;86.20;;;;;;7386571;19;20134;-75
2022/07/20 05:42:44;;;;;;;5.18;3.55;;;24.50;87.20;;;;;;7387926;19;20131;-79
2022/07/20 05:45:10;;;;;;;3.95;3.40;;;24.30;88.40;;;;;;7392372;19;20149;-80
2022/07/20 05:47:36;;;;;;;4.95;2.97;;;24.30;88.70;;;;;;7391898;19;20154;-79
2022/07/20 05:50:02;;;;;;;6.13;3.42;;;24.40;87.50;;;;;;7390138;19;20147;-76
2022/07/20 05:52:28;;;;;;;8.07;3.25;;;24.30;88.90;;;;;;7388776;19;20643;-77
2022/07/20 05:54:53;;;;;;;6.72;3.67;;;24.30;89.10;;;;;;7390501;19;20134;-78
2022/07/20 05:57:19;;;;;;;6.60;3.67;;;24.30;89.40;;;;;;7388564;19;20150;-77
2022/07/20 05:59:45;;;;;;;5.25;3.88;;;24.40;89.30;;;;;;7386082;19;20142;-76
2022/07/20 06:02:11;;;;;;;9.18;3.88;;;24.20;90.10;;;;;;7389401;19;20160;-76
2022/07/20 06:04:37;;;;;;;6.38;3.72;;;24.20;90.50;;;;;;7389757;19;20574;-79
2022/07/20 06:07:05;;;;;;;7.93;3.70;;;24.40;90.20;;;;;;7392502;19;20473;-81
2022/07/20 06:09:31;;;;;;;6.57;3.75;;;24.60;89.60;;;;;;7389326;19;20186;-75
2022/07/20 06:11:56;;;;;;;14.98;3.97;;;24.70;89.00;;;;;;7391185;19;20131;-78
2022/07/20 06:14:22;;;;;;;8.35;3.95;;;24.70;88.80;;;;;;7399246;19;20146;-76
2022/07/20 06:16:48;;;;;;;11.60;8.35;;;24.50;90.10;;;;;;7390900;19;20159;-79
2022/07/20 06:19:14;;;;;;;13.77;10.27;;;24.50;90.20;;;;;;7389555;19;20147;-79
2022/07/20 06:21:39;;;;;;;8.40;4.07;;;24.50;90.30;;;;;;7389715;19;20155;-77
2022/07/20 06:24:05;;;;;;;7.18;3.85;;;24.90;88.80;;;;;;7390653;19;20131;-77
2022/07/20 06:26:31;;;;;;;6.97;3.47;;;25.70;86.90;;;;;;7386857;19;20178;-78
2022/07/20 06:28:57;;;;;;;6.88;3.60;;;26.60;84.40;;;;;;7388588;19;20619;-79
2022/07/20 06:31:24;;;;;;;4.88;3.63;;;27.30;82.50;;;;;;7389154;19;20888;-78
2022/07/20 06:33:50;;;;;;;6.30;3.53;;;28.00;81.20;;;;;;7390006;19;20198;-77
2022/07/20 06:36:18;;;;;;;4.88;3.80;;;28.70;79.40;;;;;;7389350;19;20578;-78
2022/07/20 06:38:44;;;;;;;5.95;3.60;;;29.10;78.40;;;;;;7386423;19;20146;-76
2022/07/20 06:41:11;;;;;;;9.05;5.97;;;29.50;77.20;;;;;;7390721;19;20153;-83
2022/07/20 06:43:37;;;;;;;6.07;4.20;;;29.60;76.80;;;;;;7389060;19;20592;-80
2022/07/20 06:46:02;;;;;;;4.22;3.40;;;29.90;75.90;;;;;;7394203;19;20222;-80
2022/07/20 06:48:28;;;;;;;6.55;3.78;;;30.00;77.80;;;;;;7388783;19;20147;-79
2022/07/20 06:50:54;;;;;;;5.18;3.90;;;30.30;74.90;;;;;;7394162;19;20399;-80
2022/07/20 06:53:20;;;;;;;5.28;3.63;;;30.60;74.10;;;;;;7394937;19;20398;-79
2022/07/20 06:55:46;;;;;;;6.55;3.75;;;31.00;73.30;;;;;;7396154;19;20139;-79
2022/07/20 06:58:13;;;;;;;5.55;3.90;;;31.20;72.70;;;;;;7393837;19;20150;-80
2022/07/20 07:00:39;;;;;;;7.30;4.25;;;31.00;72.80;;;;;;7393608;19;20592;-82
2022/07/20 07:03:06;;;;;;;8.52;4.55;;;31.20;73.20;;;;;;7395217;19;20159;-79
2022/07/20 07:05:31;;;;;;;5.40;4.13;;;31.10;72.50;;;;;;7393307;19;20130;-79
2022/07/20 07:07:58;;;;;;;8.50;4.32;;;30.80;73.10;;;;;;7394289;19;20588;-78
2022/07/20 07:10:25;;;;;;;8.55;4.00;;;30.90;73.40;;;;;;7394409;19;20501;-79
2022/07/20 07:12:51;;;;;;;5.43;4.00;;;31.00;72.80;;;;;;7394361;19;20142;-79
2022/07/20 07:15:18;;;;;;;6.07;3.90;;;31.10;74.40;;;;;;7395903;19;20147;-80
2022/07/20 07:17:43;;;;;;;7.47;3.83;;;31.50;72.00;;;;;;7394644;19;20222;-79
2022/07/20 07:20:10;;;;;;;7.35;4.18;;;31.70;71.60;;;;;;7394626;19;20581;-79
2022/07/20 07:22:36;;;;;;;7.15;4.03;;;31.40;72.20;;;;;;7403319;19;20170;-80
2022/07/20 07:25:02;;;;;;;4.90;3.67;;;31.20;73.20;;;;;;7391835;19;20231;-80
2022/07/20 07:27:28;;;;;;;5.93;3.92;;;31.10;73.50;;;;;;7392196;19;20182;-79
2022/07/20 07:29:54;;;;;;;5.57;3.95;;;31.10;73.30;;;;;;7392107;19;20147;-79
2022/07/20 07:32:20;;;;;;;6.35;3.83;;;31.00;73.60;;;;;;7394866;19;20460;-80
2022/07/20 07:34:46;;;;;;;5.75;4.30;;;31.20;73.00;;;;;;7392734;19;20543;-77
2022/07/20 07:37:11;;;;;;;6.93;4.35;;;31.40;73.10;;;;;;7395630;19;20503;-78
2022/07/20 07:39:37;;;;;;;6.32;4.30;;;31.60;72.80;;;;;;7393188;19;20138;-80
2022/07/20 07:42:03;;;;;;;6.57;4.38;;;31.80;72.00;;;;;;7391751;19;20147;-79
2022/07/20 07:44:29;;;;;;;6.25;4.25;;;32.00;72.30;;;;;;7395755;19;20159;-80
2022/07/20 07:46:55;;;;;;;5.55;4.07;;;32.20;71.60;;;;;;7391956;19;20164;-79
2022/07/20 07:49:21;;;;;;;8.70;5.18;;;32.20;71.30;;;;;;7394177;19;20138;-79
2022/07/20 07:51:47;;;;;;;9.40;4.18;;;32.20;71.40;;;;;;7395503;19;20150;-80
2022/07/20 07:54:12;;;;;;;6.03;4.20;;;32.30;71.30;;;;;;7394190;19;20131;-79
2022/07/20 07:56:38;;;;;;;7.00;4.20;;;32.80;71.30;;;;;;7394441;19;20181;-82
2022/07/20 07:59:04;;;;;;;12.02;4.45;;;32.70;70.70;;;;;;7394081;19;20138;-81
2022/07/20 08:01:31;;;;;;;8.45;4.10;;;32.50;70.80;;;;;;7392639;19;20617;-81
2022/07/20 08:03:57;;;;;;;9.68;4.38;;;32.70;71.20;;;;;;7398175;19;20121;-80
2022/07/20 08:06:23;;;;;;;6.20;4.20;;;32.80;70.90;;;;;;7405896;19;20139;-79
2022/07/20 08:08:48;;;;;;;6.95;4.25;;;33.00;70.40;;;;;;7395628;19;20154;-83
2022/07/20 08:11:15;;;;;;;7.90;3.80;;;33.20;70.00;;;;;;7400233;19;20178;-82
2022/07/20 08:13:41;;;;;;;7.63;4.63;;;33.40;69.50;;;;;;7391915;19;20218;-79
2022/07/20 08:16:07;;;;;;;8.07;4.40;;;33.50;69.00;;;;;;7389091;19;20155;-80
2022/07/20 08:18:33;;;;;;;11.30;4.75;;;33.50;69.00;;;;;;7390682;19;20138;-78
2022/07/20 08:20:59;;;;;;;8.95;4.85;;;33.50;68.70;;;;;;7393574;19;20166;-76
2022/07/20 08:23:24;;;;;;;10.05;4.55;;;33.30;69.00;;;;;;7406956;19;20156;-80
2022/07/20 08:25:50;;;;;;;8.07;3.83;;;33.30;69.20;;;;;;7390383;19;20154;-78
2022/07/20 08:28:19;;;;;;;8.82;4.20;;;33.50;69.40;;;;;;7393669;19;20154;-79
2022/07/20 08:30:47;;;;;;;13.75;4.25;;;33.60;68.80;;;;;;7393420;19;20134;-79
2022/07/20 08:33:13;;;;;;;7.80;4.60;;;33.90;69.30;;;;;;7392250;19;20146;-79
2022/07/20 08:35:39;;;;;;;14.18;5.28;;;34.00;68.50;;;;;;7394294;19;20150;-79
2022/07/20 08:38:06;;;;;;;6.97;4.53;;;34.10;69.30;;;;;;7392463;19;20135;-81
2022/07/20 08:40:32;;;;;;;7.38;4.88;;;34.30;68.60;;;;;;7392739;19;20131;-80
2022/07/20 08:42:59;;;;;;;6.80;3.78;;;34.40;67.60;;;;;;7389287;19;20154;-81
2022/07/20 08:45:25;;;;;;;10.38;4.78;;;34.50;67.40;;;;;;7393578;19;20142;-80
2022/07/20 08:47:52;;;;;;;9.82;4.55;;;34.50;67.10;;;;;;7390631;19;20134;-78
2022/07/20 08:50:29;;;;;;;6.63;4.35;;;34.30;67.40;;;;;;7394206;19;20395;-80
2022/07/20 08:52:58;;;;;;;5.05;3.78;;;34.10;67.20;;;;;;7391823;19;20154;-78
2022/07/20 08:55:25;;;;;;;6.75;4.20;;;34.10;67.70;;;;;;7389306;19;20147;-81
2022/07/20 08:57:51;;;;;;;9.10;4.53;;;33.90;68.30;;;;;;7391326;19;20395;-80
2022/07/20 09:00:17;;;;;;;5.65;4.47;;;33.70;68.30;;;;;;7392306;19;20142;-81
2022/07/20 09:02:54;;;;;;;5.88;4.50;;;33.30;68.50;;;;;;7391745;19;20600;-79
2022/07/20 09:05:23;;;;;;;11.00;4.55;;;33.20;69.30;;;;;;7390382;19;20138;-79
2022/07/20 09:07:52;;;;;;;11.93;5.22;;;33.10;69.60;;;;;;7392443;19;20138;-78
2022/07/20 09:10:21;;;;;;;10.93;5.72;;;33.10;69.20;;;;;;7390425;19;20270;-82
2022/07/20 09:13:04;;;;;;;10.77;4.65;;;33.00;69.20;;;;;;7390144;19;20138;-80
2022/07/20 09:15:35;;;;;;;5.60;4.50;;;33.00;69.00;;;;;;7391390;19;20150;-79
2022/07/20 09:18:12;;;;;;;9.88;4.57;;;33.00;68.80;;;;;;7392013;19;20160;-80
2022/07/20 09:20:46;;;;;;;6.43;4.05;;;33.00;69.00;;;;;;7390900;19;20682;-80
2022/07/20 09:23:21;;;;;;;10.73;4.40;;;33.20;68.70;;;;;;7392910;19;20141;-81
2022/07/20 09:25:51;;;;;;;5.65;3.95;;;33.20;67.60;;;;;;7390287;19;20187;-81
2022/07/20 09:28:18;;;;;;;6.97;4.00;;;33.20;68.40;;;;;;7394293;19;20155;-82
2022/07/20 09:30:55;;;;;;;7.63;4.93;;;33.10;67.60;;;;;;7392105;19;20146;-82
2022/07/20 09:33:39;;;;;;;10.15;6.43;;;33.20;68.80;;;;;;7393603;19;20142;-83
2022/07/20 09:36:06;;;;;;;8.25;4.78;;;33.50;66.40;;;;;;7389182;19;20148;-82
2022/07/20 09:38:37;;;;;;;7.55;4.45;;;33.50;66.60;;;;;;7386015;19;20158;-81
2022/07/20 09:41:07;;;;;;;7.90;4.60;;;33.50;66.50;;;;;;7384578;19;20148;-81
2022/07/20 09:43:35;;;;;;;6.30;3.70;;;33.40;67.00;;;;;;7380838;19;20154;-78
2022/07/20 09:46:11;;;;;;;7.15;4.40;;;33.40;64.60;;;;;;7377962;19;20497;-80
2022/07/20 09:48:45;;;;;;;9.73;4.43;;;33.30;65.70;;;;;;7381183;19;20134;-86
2022/07/20 09:51:29;;;;;;;7.88;4.22;;;33.20;65.70;;;;;;7381063;19;20154;-79
2022/07/20 09:54:01;;;;;;;5.97;4.00;;;33.30;63.60;;;;;;7381966;19;20606;-81
2022/07/20 09:56:28;;;;;;;5.03;3.60;;;33.70;62.90;;;;;;7386512;19;20494;-81
2022/07/20 09:58:56;;;;;;;7.65;4.18;;;34.10;62.00;;;;;;7387872;19;20474;-81
2022/07/20 10:01:24;;;;;;;6.38;3.47;;;34.20;61.60;;;;;;7391840;19;20138;-80
2022/07/20 10:03:52;;;;;;;6.70;3.88;;;34.20;61.30;;;;;;7388080;19;20668;-78
2022/07/20 10:06:20;;;;;;;4.57;3.58;;;34.00;60.30;;;;;;7390649;19;20234;-80
2022/07/20 10:08:46;;;;;;;4.10;3.70;;;33.80;61.00;;;;;;7397719;19;20135;-78
2022/07/20 10:11:13;;;;;;;5.82;3.60;;;33.60;61.00;;;;;;7388934;19;20768;-80
2022/07/20 10:13:40;;;;;;;4.80;3.70;;;33.50;61.60;;;;;;7391816;19;20139;-78
2022/07/20 10:16:16;;;;;;;4.38;3.10;;;33.40;61.70;;;;;;7390570;19;20135;-81
2022/07/20 10:18:47;;;;;;;6.82;3.70;;;33.50;62.00;;;;;;7394003;19;20152;-78
2022/07/20 10:21:40;;;;;;;6.47;3.30;;;33.50;61.70;;;;;;7388271;19;20218;-79
2022/07/20 10:24:25;;;;;;;3.28;2.97;;;33.50;63.30;;;;;;7395736;19;20561;-79
2022/07/20 10:27:02;;;;;;;4.13;3.70;;;33.50;61.90;;;;;;7395631;19;20154;-80
2022/07/20 10:29:36;;;;;;;5.30;3.50;;;33.40;62.00;;;;;;7394892;19;20154;-80
2022/07/20 10:32:14;;;;;;;3.67;3.20;;;33.40;62.00;;;;;;7396210;19;20142;-78
2022/07/20 10:34:41;;;;;;;6.80;3.50;;;33.40;62.00;;;;;;7395577;19;20134;-77
2022/07/20 10:37:28;;;;;;;4.78;3.10;;;33.30;62.40;;;;;;7395313;19;20146;-76
2022/07/20 10:39:57;;;;;;;7.30;3.47;;;33.20;62.50;;;;;;7395304;19;20131;-78
2022/07/20 10:42:40;;;;;;;5.25;3.28;;;33.30;62.90;;;;;;7400957;19;20142;-78
2022/07/20 10:45:20;;;;;;;6.38;3.60;;;33.40;63.20;;;;;;7395216;19;20142;-76
2022/07/20 10:48:12;;;;;;;4.95;3.65;;;33.50;62.30;;;;;;7395713;19;20130;-77
2022/07/20 10:50:48;;;;;;;7.40;3.58;;;33.50;62.40;;;;;;7393025;19;20138;-78
2022/07/20 10:53:13;;;;;;;3.80;3.15;;;33.60;62.20;;;;;;7389731;19;20135;-77
2022/07/20 10:55:42;;;;;;;5.57;3.65;;;33.60;61.80;;;;;;7386042;19;20155;-77
2022/07/20 10:58:14;;;;;;;4.90;3.30;;;33.70;62.10;;;;;;7389138;19;20139;-78
2022/07/20 11:00:42;;;;;;;3.45;3.15;;;33.70;61.70;;;;;;7384277;19;20694;-78
2022/07/20 11:03:13;;;;;;;3.92;3.50;;;33.70;62.50;;;;;;7386049;19;20138;-77
2022/07/20 11:05:40;;;;;;;6.15;4.07;;;33.80;61.80;;;;;;7384083;19;20146;-78
2022/07/20 11:08:07;;;;;;;4.75;3.67;;;33.70;62.70;;;;;;7389736;19;20171;-77
2022/07/20 11:10:34;;;;;;;7.45;4.05;;;33.70;62.50;;;;;;7383252;19;20142;-77
2022/07/20 11:13:05;;;;;;;4.80;3.42;;;33.70;61.80;;;;;;7391788;19;20152;-79
2022/07/20 11:15:48;;;;;;;7.43;3.35;;;33.70;61.80;;;;;;7387311;19;20135;-76
2022/07/20 11:18:16;;;;;;;4.90;3.88;;;33.80;62.10;;;;;;7384428;19;20218;-76
2022/07/20 11:20:55;;;;;;;4.95;3.45;;;33.80;61.80;;;;;;7386408;19;20185;-77
2022/07/20 11:23:24;;;;;;;4.53;3.60;;;33.80;61.70;;;;;;7387551;19;20235;-77
2022/07/20 11:26:00;;;;;;;5.10;3.50;;;33.80;62.30;;;;;;7386626;19;20199;-78
2022/07/20 11:28:33;;;;;;;5.20;3.50;;;33.90;61.60;;;;;;7384083;19;20197;-76
2022/07/20 11:31:01;;;;;;;5.10;3.90;;;33.80;61.80;;;;;;7392603;19;20168;-77
2022/07/20 11:33:31;;;;;;;4.20;3.78;;;33.90;62.30;;;;;;7386737;19;20143;-82
2022/07/20 11:36:06;;;;;;;5.07;3.35;;;33.90;62.00;;;;;;7391587;19;20163;-78
2022/07/20 11:38:43;;;;;;;4.43;3.70;;;33.90;62.50;;;;;;7393517;19;20137;-78
2022/07/20 11:41:21;;;;;;;4.32;3.65;;;33.80;62.90;;;;;;7396704;19;20634;-78
2022/07/20 11:43:51;;;;;;;5.45;3.50;;;33.90;62.90;;;;;;7393933;19;20147;-78
2022/07/20 11:46:18;;;;;;;4.13;3.72;;;34.10;62.80;;;;;;7390422;19;20131;-78
2022/07/20 11:49:01;;;;;;;5.30;3.70;;;34.10;63.50;;;;;;7394899;19;20138;-77
2022/07/20 11:51:29;;;;;;;4.28;3.55;;;34.10;62.30;;;;;;7396917;19;20503;-76
2022/07/20 11:53:55;;;;;;;4.80;3.35;;;34.10;62.30;;;;;;7393734;19;20147;-76
2022/07/20 11:56:25;;;;;;;5.43;3.80;;;34.10;62.20;;;;;;7393744;19;20301;-76
2022/07/20 11:58:54;;;;;;;5.00;3.83;;;34.10;62.00;;;;;;7392258;19;20161;-76
2022/07/20 12:01:28;;;;;;;3.72;3.42;;;34.10;61.90;;;;;;7393909;19;20591;-75
2022/07/20 12:04:03;;;;;;;7.70;3.83;;;34.00;62.10;;;;;;7404720;19;20166;-82
2022/07/20 12:06:32;;;;;;;5.13;3.58;;;33.90;63.50;;;;;;7390338;19;20174;-80
2022/07/20 12:09:06;;;;;;;5.63;3.63;;;34.10;62.60;;;;;;7392287;19;20143;-75
2022/07/20 12:11:33;;;;;;;5.55;4.10;;;34.10;62.40;;;;;;7391849;19;20491;-81
2022/07/20 12:14:00;;;;;;;6.45;4.00;;;34.00;63.70;;;;;;7394374;19;20587;-77
2022/07/20 12:16:40;;;;;;;5.43;4.28;;;33.90;63.60;;;;;;7390607;19;20218;-80
2022/07/20 12:19:06;;;;;;;4.57;3.78;;;33.80;63.30;;;;;;7388677;19;20174;-74
2022/07/20 12:21:42;;;;;;;4.65;4.00;;;33.90;63.70;;;;;;7391340;19;20137;-76
2022/07/20 12:24:08;;;;;;;4.93;4.20;;;34.00;63.00;;;;;;7391025;19;20142;-73
2022/07/20 12:26:35;;;;;;;6.25;3.97;;;34.10;63.90;;;;;;7386344;19;20165;-72
2022/07/20 12:29:26;;;;;;;5.57;4.20;;;34.00;63.80;;;;;;7393979;19;20684;-73
2022/07/20 12:32:01;;;;;;;4.40;4.00;;;34.10;64.60;;;;;;7392706;19;20166;-73
2022/07/20 12:34:28;;;;;;;7.57;4.07;;;34.20;63.90;;;;;;7393108;19;20150;-74
2022/07/20 12:36:54;;;;;;;5.05;4.25;;;34.20;63.80;;;;;;7395387;19;20131;-74
2022/07/20 12:39:39;;;;;;;4.80;4.32;;;34.10;64.30;;;;;;7394370;19;20138;-70
2022/07/20 12:42:19;;;;;;;7.00;4.70;;;33.60;65.60;;;;;;7393090;19;20146;-70
2022/07/20 12:44:46;;;;;;;6.07;4.60;;;33.70;65.60;;;;;;7394293;19;20153;-69
2022/07/20 12:47:14;;;;;;;14.02;4.72;;;34.10;65.20;;;;;;7391402;19;20137;-70
2022/07/20 12:49:40;;;;;;;6.38;4.90;;;34.10;65.10;;;;;;7391441;19;20206;-72
2022/07/20 12:52:06;;;;;;;7.07;5.05;;;34.00;65.10;;;;;;7393697;19;20155;-72